Time;durP1;ratioP1;P1;durP2;ratioP2;P2;SDS_P1;SDS_P2;PMS_P1;PMS_P2;Temp;Humidity;BMP_temperature;BMP_pressure;BME280_temperature;BME280_humidity;BME280_pressure;Samples;Min_cycle;Max_cycle;Signal;HPM_P1;HPM_P2
2021/01/24 00:00:17;;;;;;;14.87;7.63;;;;;;;;;;5089267;28;20534;-66
2021/01/24 00:02:42;;;;;;;13.63;7.72;;;;;;;;;;5087557;28;20387;-66
2021/01/24 00:05:07;;;;;;;10.98;5.57;;;;;;;;;;5086094;28;20381;-66
2021/01/24 00:07:32;;;;;;;14.13;8.52;;;;;;;;;;5088279;28;20526;-66
2021/01/24 00:09:57;;;;;;;13.13;6.57;;;;;;;;;;5086602;28;20476;-66
2021/01/24 00:12:23;;;;;;;13.33;7.60;;;;;;;;;;5088004;28;20039;-66
2021/01/24 00:14:48;;;;;;;15.25;7.78;;;;;;;;;;5088734;28;20397;-67
2021/01/24 00:17:13;;;;;;;13.23;7.57;;;;;;;;;;5089055;28;20020;-66
2021/01/24 00:19:38;;;;;;;12.57;6.80;;;;;;;;;;5085960;28;20670;-66
2021/01/24 00:22:03;;;;;;;13.15;8.77;;;;;;;;;;5087987;28;20384;-67
2021/01/24 00:24:28;;;;;;;15.60;9.68;;;;;;;;;;5085727;28;20433;-67
2021/01/24 00:26:53;;;;;;;18.42;9.77;;;;;;;;;;5088638;28;20091;-67
2021/01/24 00:29:19;;;;;;;15.68;8.93;;;;;;;;;;5087171;28;20065;-67
2021/01/24 00:31:44;;;;;;;3.35;2.20;;;;;;;;;;5087586;28;20039;-66
2021/01/24 00:34:09;;;;;;;14.15;9.15;;;;;;;;;;5087777;28;20032;-67
2021/01/24 00:36:35;;;;;;;17.67;8.93;;;;;;;;;;5087663;28;20530;-66
2021/01/24 00:39:00;;;;;;;15.80;8.43;;;;;;;;;;5088094;28;20023;-66
2021/01/24 00:41:26;;;;;;;15.63;9.07;;;;;;;;;;5087004;28;20024;-67
2021/01/24 00:43:51;;;;;;;5.85;2.92;;;;;;;;;;5070012;28;20042;-66
2021/01/24 00:46:16;;;;;;;10.00;6.20;;;;;;;;;;5089043;28;20092;-66
2021/01/24 00:48:41;;;;;;;15.88;10.00;;;;;;;;;;5087094;28;20082;-67
2021/01/24 00:51:06;;;;;;;19.67;11.10;;;;;;;;;;5086074;28;20028;-67
2021/01/24 00:53:32;;;;;;;20.63;8.73;;;;;;;;;;5089091;28;20112;-66
2021/01/24 00:55:57;;;;;;;16.40;9.38;;;;;;;;;;5087071;28;20040;-67
2021/01/24 00:58:23;;;;;;;12.07;7.13;;;;;;;;;;5088264;28;20093;-67
2021/01/24 01:00:48;;;;;;;16.85;8.98;;;;;;;;;;5086888;28;20044;-67
2021/01/24 01:03:13;;;;;;;15.88;10.05;;;;;;;;;;5087029;28;20533;-67
2021/01/24 01:05:39;;;;;;;19.40;9.32;;;;;;;;;;5088353;28;20019;-67
2021/01/24 01:08:04;;;;;;;13.95;8.48;;;;;;;;;;5085329;28;20016;-66
2021/01/24 01:10:29;;;;;;;16.85;10.30;;;;;;;;;;5087622;28;20073;-66
2021/01/24 01:12:54;;;;;;;18.63;10.82;;;;;;;;;;5086850;28;20016;-67
2021/01/24 01:15:20;;;;;;;14.57;9.18;;;;;;;;;;5088817;28;20066;-66
2021/01/24 01:17:45;;;;;;;18.08;10.40;;;;;;;;;;5086752;28;20030;-66
2021/01/24 01:20:10;;;;;;;18.15;10.68;;;;;;;;;;5087713;28;20069;-66
2021/01/24 01:22:35;;;;;;;19.17;10.48;;;;;;;;;;5082833;28;20016;-66
2021/01/24 01:25:01;;;;;;;24.38;13.15;;;;;;;;;;5087929;28;20024;-67
2021/01/24 01:27:26;;;;;;;17.58;8.35;;;;;;;;;;5087455;28;20020;-66
2021/01/24 01:29:51;;;;;;;14.57;7.95;;;;;;;;;;5088371;28;20016;-67
2021/01/24 01:32:16;;;;;;;17.80;10.87;;;;;;;;;;5093424;23;20106;-66
2021/01/24 01:34:41;;;;;;;18.05;9.35;;;;;;;;;;5086115;28;20357;-67
2021/01/24 01:37:06;;;;;;;16.33;9.73;;;;;;;;;;5086584;28;20057;-66
2021/01/24 01:39:32;;;;;;;15.40;9.52;;;;;;;;;;5085874;28;20035;-66
2021/01/24 01:41:57;;;;;;;16.92;9.55;;;;;;;;;;5082569;28;20029;-66
2021/01/24 01:44:22;;;;;;;11.68;6.13;;;;;;;;;;5075782;28;20099;-68
2021/01/24 01:46:50;;;;;;;21.73;9.40;;;;;;;;;;5076728;28;20019;-66
2021/01/24 01:49:16;;;;;;;7.75;4.40;;;;;;;;;;5077395;28;20009;-66
2021/01/24 01:51:41;;;;;;;21.85;10.38;;;;;;;;;;5073317;28;20028;-67
2021/01/24 01:54:06;;;;;;;16.48;10.38;;;;;;;;;;5052013;28;20024;-66
2021/01/24 01:56:32;;;;;;;19.55;10.93;;;;;;;;;;5066664;28;20024;-67
2021/01/24 01:58:57;;;;;;;18.88;12.95;;;;;;;;;;5067793;28;20430;-66
2021/01/24 02:01:25;;;;;;;19.83;11.65;;;;;;;;;;5068745;28;20028;-66
2021/01/24 02:04:12;;;;;;;16.70;9.65;;;;;;;;;;5073024;28;20768;-66
2021/01/24 02:06:40;;;;;;;19.67;13.35;;;;;;;;;;5076707;28;20048;-66
2021/01/24 02:09:15;;;;;;;20.80;11.63;;;;;;;;;;5067737;28;20032;-66
2021/01/24 02:11:59;;;;;;;20.13;11.57;;;;;;;;;;5076471;28;20024;-66
2021/01/24 02:14:33;;;;;;;20.33;10.45;;;;;;;;;;5076008;28;20025;-66
2021/01/24 02:17:00;;;;;;;16.45;11.80;;;;;;;;;;5072298;28;20078;-66
2021/01/24 02:19:46;;;;;;;18.00;10.05;;;;;;;;;;5076994;28;20453;-66
2021/01/24 02:22:12;;;;;;;18.17;9.80;;;;;;;;;;5075552;28;20431;-66
2021/01/24 02:24:39;;;;;;;19.27;12.23;;;;;;;;;;5076332;28;20023;-66
2021/01/24 02:27:04;;;;;;;19.40;9.23;;;;;;;;;;5077117;28;20016;-66
2021/01/24 02:29:35;;;;;;;14.82;7.93;;;;;;;;;;5074455;28;20078;-66
2021/01/24 02:32:02;;;;;;;16.63;9.88;;;;;;;;;;5073576;28;20036;-66
2021/01/24 02:34:30;;;;;;;13.57;7.50;;;;;;;;;;5075013;28;20036;-66
2021/01/24 02:36:55;;;;;;;13.57;7.82;;;;;;;;;;5075023;28;20020;-66
2021/01/24 02:39:21;;;;;;;11.25;7.07;;;;;;;;;;5073822;28;20038;-66
2021/01/24 02:41:46;;;;;;;11.57;6.85;;;;;;;;;;5074128;28;20055;-66
2021/01/24 02:44:12;;;;;;;10.98;6.38;;;;;;;;;;5076374;28;20154;-66
2021/01/24 02:46:37;;;;;;;8.52;4.97;;;;;;;;;;5072472;28;20464;-66
2021/01/24 02:49:03;;;;;;;20.17;8.85;;;;;;;;;;5076147;28;20063;-66
2021/01/24 02:51:28;;;;;;;11.20;6.35;;;;;;;;;;5073181;28;20020;-66
2021/01/24 02:53:54;;;;;;;10.35;6.60;;;;;;;;;;5075763;28;20111;-66
2021/01/24 02:56:21;;;;;;;9.50;5.55;;;;;;;;;;5072000;28;20035;-66
2021/01/24 02:58:46;;;;;;;8.77;5.30;;;;;;;;;;5075345;28;20016;-66
2021/01/24 03:01:12;;;;;;;8.98;6.18;;;;;;;;;;5073641;28;20038;-66
2021/01/24 03:03:37;;;;;;;9.02;6.72;;;;;;;;;;5077478;28;20020;-66
2021/01/24 03:06:02;;;;;;;6.25;4.25;;;;;;;;;;5071924;28;20110;-67
2021/01/24 03:08:28;;;;;;;7.25;4.32;;;;;;;;;;5076395;28;20158;-66
2021/01/24 03:10:53;;;;;;;5.30;4.25;;;;;;;;;;5074226;28;20027;-66
2021/01/24 03:13:22;;;;;;;3.85;2.50;;;;;;;;;;5066370;28;20126;-66
2021/01/24 03:15:48;;;;;;;4.57;2.70;;;;;;;;;;5067495;28;20476;-67
2021/01/24 03:18:16;;;;;;;5.40;2.75;;;;;;;;;;5067768;28;20017;-66
2021/01/24 03:20:43;;;;;;;7.82;4.35;;;;;;;;;;5053791;28;20021;-67
2021/01/24 03:23:08;;;;;;;6.25;4.68;;;;;;;;;;5071391;28;20032;-67
2021/01/24 03:25:36;;;;;;;6.25;3.78;;;;;;;;;;5071346;28;20016;-66
2021/01/24 03:28:02;;;;;;;8.35;5.18;;;;;;;;;;5071386;28;20020;-66
2021/01/24 03:30:27;;;;;;;6.38;5.25;;;;;;;;;;5072132;28;20021;-66
2021/01/24 03:32:53;;;;;;;7.85;5.75;;;;;;;;;;5071309;28;20032;-67
2021/01/24 03:35:18;;;;;;;8.90;6.95;;;;;;;;;;5069852;28;20075;-67
2021/01/24 03:37:43;;;;;;;7.40;5.30;;;;;;;;;;5072140;28;20119;-66
2021/01/24 03:40:08;;;;;;;6.03;3.40;;;;;;;;;;5071882;28;20667;-66
2021/01/24 03:42:34;;;;;;;6.22;4.88;;;;;;;;;;5071273;28;20133;-66
2021/01/24 03:44:59;;;;;;;6.32;4.10;;;;;;;;;;5070375;28;20099;-67
2021/01/24 03:47:24;;;;;;;8.13;5.65;;;;;;;;;;5071696;28;20016;-67
2021/01/24 03:49:49;;;;;;;9.65;6.15;;;;;;;;;;5071274;28;20016;-66
2021/01/24 03:52:14;;;;;;;7.57;3.97;;;;;;;;;;5071680;28;20020;-66
2021/01/24 03:54:40;;;;;;;6.32;3.30;;;;;;;;;;5071001;28;20029;-66
2021/01/24 03:57:05;;;;;;;5.10;3.47;;;;;;;;;;5072001;28;20020;-66
2021/01/24 03:59:30;;;;;;;5.35;3.45;;;;;;;;;;5070777;28;20017;-66
2021/01/24 04:01:55;;;;;;;3.65;2.53;;;;;;;;;;5071496;28;20129;-66
2021/01/24 04:04:20;;;;;;;4.22;2.75;;;;;;;;;;5070149;28;20028;-66
2021/01/24 04:06:45;;;;;;;4.57;2.78;;;;;;;;;;5070716;28;20572;-66
2021/01/24 04:09:10;;;;;;;4.13;2.30;;;;;;;;;;5070345;28;20023;-66
2021/01/24 04:11:36;;;;;;;5.60;3.88;;;;;;;;;;5071203;28;20149;-66
2021/01/24 04:14:01;;;;;;;5.57;2.55;;;;;;;;;;5071220;28;20026;-66
2021/01/24 04:16:26;;;;;;;3.83;2.40;;;;;;;;;;5068450;28;20027;-66
2021/01/24 04:18:51;;;;;;;5.50;2.83;;;;;;;;;;5070427;28;20032;-66
2021/01/24 04:21:16;;;;;;;3.45;2.30;;;;;;;;;;5069836;28;20032;-66
2021/01/24 04:23:42;;;;;;;3.63;2.08;;;;;;;;;;5079420;28;20024;-66
2021/01/24 04:26:07;;;;;;;5.20;2.72;;;;;;;;;;5075503;28;20060;-66
2021/01/24 04:28:32;;;;;;;4.97;2.72;;;;;;;;;;5077317;28;20032;-66
2021/01/24 04:30:57;;;;;;;6.60;2.85;;;;;;;;;;5077732;28;20043;-66
2021/01/24 04:33:22;;;;;;;6.85;3.47;;;;;;;;;;5076277;28;20063;-66
2021/01/24 04:35:48;;;;;;;5.88;3.58;;;;;;;;;;5071831;28;20024;-66
2021/01/24 04:38:13;;;;;;;4.68;2.35;;;;;;;;;;5077881;28;20043;-66
2021/01/24 04:40:38;;;;;;;3.83;2.15;;;;;;;;;;5077684;28;20038;-66
2021/01/24 04:43:03;;;;;;;5.30;2.92;;;;;;;;;;5076510;28;20511;-66
2021/01/24 04:45:29;;;;;;;10.07;4.35;;;;;;;;;;5075037;28;20085;-66
2021/01/24 04:47:55;;;;;;;7.55;3.65;;;;;;;;;;5078373;28;20185;-66
2021/01/24 04:50:20;;;;;;;5.88;3.75;;;;;;;;;;5077042;28;20518;-66
2021/01/24 04:52:46;;;;;;;8.65;4.55;;;;;;;;;;5075393;28;20112;-66
2021/01/24 04:55:13;;;;;;;6.38;3.63;;;;;;;;;;5075535;28;20028;-66
2021/01/24 04:57:38;;;;;;;7.28;3.85;;;;;;;;;;5067304;28;20435;-66
2021/01/24 05:00:04;;;;;;;10.48;4.22;;;;;;;;;;5068288;28;20016;-66
2021/01/24 05:02:29;;;;;;;8.32;2.75;;;;;;;;;;5075913;28;20020;-66
2021/01/24 05:04:54;;;;;;;7.80;2.80;;;;;;;;;;5075962;28;20017;-65
2021/01/24 05:07:20;;;;;;;7.22;3.65;;;;;;;;;;5077364;28;20086;-66
2021/01/24 05:09:45;;;;;;;5.65;2.90;;;;;;;;;;5077010;28;20495;-66
2021/01/24 05:12:10;;;;;;;5.82;2.83;;;;;;;;;;5074710;28;20023;-65
2021/01/24 05:14:36;;;;;;;19.85;4.75;;;;;;;;;;5074465;28;20123;-65
2021/01/24 05:17:01;;;;;;;8.95;3.90;;;;;;;;;;5077026;28;20059;-65
2021/01/24 05:19:26;;;;;;;9.02;4.53;;;;;;;;;;5077027;28;20174;-65
2021/01/24 05:21:52;;;;;;;7.60;4.47;;;;;;;;;;5077907;28;20055;-66
2021/01/24 05:24:18;;;;;;;6.72;3.53;;;;;;;;;;5076324;28;20044;-66
2021/01/24 05:26:44;;;;;;;8.93;4.00;;;;;;;;;;5074483;28;20035;-66
2021/01/24 05:29:17;;;;;;;9.70;5.60;;;;;;;;;;5076728;28;20012;-65
2021/01/24 05:31:43;;;;;;;9.38;4.30;;;;;;;;;;5068851;28;20021;-65
2021/01/24 05:34:09;;;;;;;11.25;4.50;;;;;;;;;;5071995;28;20128;-65
2021/01/24 05:37:00;;;;;;;13.45;4.97;;;;;;;;;;5078648;28;20020;-66
2021/01/24 05:39:27;;;;;;;11.60;4.60;;;;;;;;;;5070988;28;20033;-66
2021/01/24 05:41:53;;;;;;;14.85;6.65;;;;;;;;;;5074836;28;20024;-66
2021/01/24 05:44:19;;;;;;;14.68;5.93;;;;;;;;;;5075881;28;20024;-66
2021/01/24 05:46:44;;;;;;;12.93;5.93;;;;;;;;;;5075970;28;20399;-66
2021/01/24 05:49:10;;;;;;;14.30;5.28;;;;;;;;;;5075249;28;20024;-67
2021/01/24 05:51:35;;;;;;;12.70;7.40;;;;;;;;;;5071975;28;20024;-66
2021/01/24 05:54:01;;;;;;;11.45;5.88;;;;;;;;;;5076374;28;20039;-66
2021/01/24 05:56:26;;;;;;;16.38;6.70;;;;;;;;;;5075532;28;20028;-66
2021/01/24 05:58:52;;;;;;;14.20;6.63;;;;;;;;;;5077479;28;20047;-67
2021/01/24 06:01:18;;;;;;;13.68;5.97;;;;;;;;;;5072554;28;20036;-67
2021/01/24 06:03:43;;;;;;;17.08;7.40;;;;;;;;;;5074344;28;20380;-66
2021/01/24 06:06:08;;;;;;;13.85;7.93;;;;;;;;;;5076790;28;20027;-66
2021/01/24 06:08:33;;;;;;;15.23;8.38;;;;;;;;;;5074746;28;20012;-66
2021/01/24 06:10:59;;;;;;;15.07;7.57;;;;;;;;;;5076508;28;20500;-66
2021/01/24 06:13:25;;;;;;;18.52;7.88;;;;;;;;;;5077725;28;20023;-66
2021/01/24 06:15:51;;;;;;;15.50;6.38;;;;;;;;;;5076200;28;20016;-67
2021/01/24 06:18:18;;;;;;;15.00;6.63;;;;;;;;;;5076827;28;20115;-66
2021/01/24 06:20:56;;;;;;;16.25;7.20;;;;;;;;;;5075669;28;20388;-66
2021/01/24 06:23:21;;;;;;;18.30;6.13;;;;;;;;;;5077019;28;20059;-67
2021/01/24 06:25:48;;;;;;;21.25;7.70;;;;;;;;;;5074873;28;20016;-66
2021/01/24 06:28:20;;;;;;;10.85;5.57;;;;;;;;;;5077439;28;20350;-67
2021/01/24 06:30:45;;;;;;;16.02;8.43;;;;;;;;;;5075894;28;20066;-66
2021/01/24 06:33:11;;;;;;;17.23;8.25;;;;;;;;;;5072185;28;20590;-66
2021/01/24 06:35:42;;;;;;;12.93;6.88;;;;;;;;;;5074528;28;20032;-65
2021/01/24 06:38:08;;;;;;;12.85;6.35;;;;;;;;;;5073000;28;20056;-65
2021/01/24 06:40:41;;;;;;;17.35;8.90;;;;;;;;;;5067279;28;20113;-66
2021/01/24 06:43:06;;;;;;;20.02;6.80;;;;;;;;;;5067556;28;20028;-67
2021/01/24 06:45:31;;;;;;;21.10;8.38;;;;;;;;;;5072291;28;20008;-65
2021/01/24 06:47:57;;;;;;;18.27;10.43;;;;;;;;;;5072848;28;20481;-67
2021/01/24 06:50:43;;;;;;;18.42;7.25;;;;;;;;;;5074713;28;20029;-69
2021/01/24 06:53:12;;;;;;;21.10;10.25;;;;;;;;;;5073817;28;20114;-65
2021/01/24 06:55:38;;;;;;;21.88;9.45;;;;;;;;;;5072134;28;20044;-65
2021/01/24 06:58:21;;;;;;;25.40;9.95;;;;;;;;;;5066578;28;20107;-65
2021/01/24 07:00:47;;;;;;;27.75;10.90;;;;;;;;;;5068139;28;20028;-67
2021/01/24 07:03:16;;;;;;;30.23;15.35;;;;;;;;;;5069087;28;20763;-66
2021/01/24 07:05:41;;;;;;;30.10;11.68;;;;;;;;;;5068769;28;20012;-66
2021/01/24 07:08:26;;;;;;;28.45;13.23;;;;;;;;;;5067679;28;20024;-66
2021/01/24 07:10:51;;;;;;;31.17;14.50;;;;;;;;;;5066991;28;20759;-66
2021/01/24 07:13:25;;;;;;;28.75;12.50;;;;;;;;;;5066795;28;20032;-66
2021/01/24 07:15:58;;;;;;;29.60;11.98;;;;;;;;;;5065875;28;20051;-66
2021/01/24 07:18:23;;;;;;;24.02;11.23;;;;;;;;;;5067754;28;20020;-66
2021/01/24 07:20:50;;;;;;;25.35;13.25;;;;;;;;;;5067510;28;20121;-66
2021/01/24 07:23:16;;;;;;;29.05;16.75;;;;;;;;;;5067783;28;20024;-66
2021/01/24 07:25:41;;;;;;;31.23;12.13;;;;;;;;;;5065122;28;20025;-66
2021/01/24 07:28:06;;;;;;;28.40;11.73;;;;;;;;;;5067907;28;20414;-66
2021/01/24 07:30:31;;;;;;;27.40;12.48;;;;;;;;;;5068077;28;20531;-66
2021/01/24 07:32:57;;;;;;;25.52;13.27;;;;;;;;;;5068476;28;20031;-66
2021/01/24 07:35:22;;;;;;;33.10;12.70;;;;;;;;;;5067091;28;20025;-66
2021/01/24 07:37:48;;;;;;;23.77;11.38;;;;;;;;;;5067262;28;20036;-66
2021/01/24 07:40:13;;;;;;;29.88;14.50;;;;;;;;;;5067910;28;20032;-66
2021/01/24 07:42:38;;;;;;;26.98;12.82;;;;;;;;;;5066629;28;20488;-65
2021/01/24 07:45:04;;;;;;;31.80;14.43;;;;;;;;;;5066690;28;20016;-66
2021/01/24 07:47:29;;;;;;;27.40;11.25;;;;;;;;;;5068081;28;20419;-66
2021/01/24 07:49:54;;;;;;;36.13;13.18;;;;;;;;;;5067507;28;20021;-67
2021/01/24 07:52:20;;;;;;;28.83;13.80;;;;;;;;;;5067575;28;20027;-66
2021/01/24 07:54:45;;;;;;;32.00;12.27;;;;;;;;;;5067153;28;20548;-66
2021/01/24 07:57:11;;;;;;;34.25;15.40;;;;;;;;;;5065985;28;20025;-66
2021/01/24 07:59:37;;;;;;;40.63;14.32;;;;;;;;;;5065196;28;20063;-66
2021/01/24 08:02:03;;;;;;;40.03;18.23;;;;;;;;;;5064621;28;20180;-67
2021/01/24 08:04:28;;;;;;;32.65;13.38;;;;;;;;;;5066594;28;20021;-67
2021/01/24 08:06:53;;;;;;;37.00;16.00;;;;;;;;;;5071845;28;20438;-65
2021/01/24 08:09:19;;;;;;;39.10;14.15;;;;;;;;;;5077918;28;20554;-66
2021/01/24 08:11:44;;;;;;;38.08;20.60;;;;;;;;;;5079116;28;20510;-67
2021/01/24 08:14:09;;;;;;;39.33;15.43;;;;;;;;;;5079879;28;20032;-66
2021/01/24 08:16:40;;;;;;;40.90;19.38;;;;;;;;;;5074944;28;20663;-66
2021/01/24 08:19:06;;;;;;;41.08;15.00;;;;;;;;;;5070955;28;20040;-67
2021/01/24 08:21:32;;;;;;;37.97;16.02;;;;;;;;;;5071261;28;20442;-66
2021/01/24 08:23:58;;;;;;;35.15;16.48;;;;;;;;;;5068540;28;20124;-66
2021/01/24 08:26:23;;;;;;;45.45;18.67;;;;;;;;;;5071275;28;20017;-66
2021/01/24 08:28:49;;;;;;;47.30;16.92;;;;;;;;;;5070607;28;20365;-66
2021/01/24 08:31:18;;;;;;;51.92;19.70;;;;;;;;;;5070667;28;20499;-66
2021/01/24 08:33:43;;;;;;;47.22;18.48;;;;;;;;;;5066595;28;20028;-67
2021/01/24 08:36:11;;;;;;;53.00;20.58;;;;;;;;;;5070151;28;20017;-66
2021/01/24 08:38:37;;;;;;;57.58;21.83;;;;;;;;;;5070288;28;20021;-66
2021/01/24 08:41:03;;;;;;;57.15;20.42;;;;;;;;;;5070160;28;20027;-66
2021/01/24 08:43:28;;;;;;;63.75;22.60;;;;;;;;;;5069544;28;20109;-66
2021/01/24 08:45:53;;;;;;;56.70;21.95;;;;;;;;;;5067515;28;20039;-67
2021/01/24 08:48:20;;;;;;;66.70;28.00;;;;;;;;;;5074021;28;20024;-66
2021/01/24 08:50:45;;;;;;;68.55;30.42;;;;;;;;;;5074056;28;20024;-66
2021/01/24 08:53:10;;;;;;;64.15;29.38;;;;;;;;;;5076628;28;20019;-67
2021/01/24 08:56:05;;;;;;;69.25;24.38;;;;;;;;;;5076431;28;20031;-66
2021/01/24 08:58:30;;;;;;;62.65;24.98;;;;;;;;;;5064022;28;20506;-66
2021/01/24 09:01:05;;;;;;;66.93;32.90;;;;;;;;;;5074768;28;20020;-66
2021/01/24 09:03:30;;;;;;;62.85;29.77;;;;;;;;;;5073295;28;20016;-66
2021/01/24 09:06:12;;;;;;;62.45;24.20;;;;;;;;;;5069324;28;20081;-66
2021/01/24 09:08:43;;;;;;;70.63;31.95;;;;;;;;;;5077692;28;20107;-67
2021/01/24 09:11:09;;;;;;;66.97;26.67;;;;;;;;;;5078860;28;20477;-66
2021/01/24 09:13:34;;;;;;;58.83;25.17;;;;;;;;;;5080438;28;20047;-66
2021/01/24 09:15:59;;;;;;;71.30;29.48;;;;;;;;;;5078014;28;20024;-67
2021/01/24 09:18:24;;;;;;;56.00;23.95;;;;;;;;;;5076241;28;20173;-67
2021/01/24 09:20:49;;;;;;;66.65;30.52;;;;;;;;;;5076988;28;20372;-66
2021/01/24 09:23:15;;;;;;;59.40;27.65;;;;;;;;;;5078063;28;20031;-66
2021/01/24 09:25:40;;;;;;;59.97;24.43;;;;;;;;;;5072665;28;20025;-66
2021/01/24 09:28:05;;;;;;;76.95;33.17;;;;;;;;;;5071831;28;20266;-67
2021/01/24 09:30:30;;;;;;;54.00;26.10;;;;;;;;;;5077483;28;20020;-68
2021/01/24 09:32:58;;;;;;;57.50;22.15;;;;;;;;;;5056572;28;20051;-66
2021/01/24 09:35:23;;;;;;;56.88;24.55;;;;;;;;;;5073635;28;20047;-66
2021/01/24 09:37:48;;;;;;;68.55;26.02;;;;;;;;;;5076610;28;20480;-66
2021/01/24 09:40:14;;;;;;;70.72;25.90;;;;;;;;;;5074934;28;20486;-67
2021/01/24 09:42:39;;;;;;;62.85;24.58;;;;;;;;;;5078418;28;20094;-67
2021/01/24 09:45:04;;;;;;;61.40;23.45;;;;;;;;;;5078338;28;20466;-67
2021/01/24 09:47:30;;;;;;;56.75;22.20;;;;;;;;;;5075314;28;20021;-65
2021/01/24 09:49:55;;;;;;;48.38;22.05;;;;;;;;;;5076286;28;20020;-66
2021/01/24 09:52:20;;;;;;;51.25;18.58;;;;;;;;;;5075378;28;20634;-67
2021/01/24 09:54:45;;;;;;;46.08;20.30;;;;;;;;;;5076568;28;20056;-67
2021/01/24 09:57:10;;;;;;;43.03;18.02;;;;;;;;;;5075593;28;20028;-67
2021/01/24 09:59:36;;;;;;;52.17;18.00;;;;;;;;;;5077769;28;20431;-67
2021/01/24 10:02:01;;;;;;;53.92;20.58;;;;;;;;;;5073438;28;20020;-66
2021/01/24 10:04:26;;;;;;;50.20;21.17;;;;;;;;;;5076885;28;20016;-66
2021/01/24 10:06:51;;;;;;;56.43;20.70;;;;;;;;;;5074518;28;20054;-66
2021/01/24 10:09:16;;;;;;;52.17;18.38;;;;;;;;;;5075067;28;20254;-66
2021/01/24 10:11:43;;;;;;;62.17;20.13;;;;;;;;;;5075370;28;20039;-66
2021/01/24 10:14:08;;;;;;;46.03;19.75;;;;;;;;;;5074478;28;20043;-66
2021/01/24 10:16:33;;;;;;;52.15;20.95;;;;;;;;;;5076368;28;20496;-66
2021/01/24 10:18:58;;;;;;;56.15;25.90;;;;;;;;;;5076268;28;20020;-66
2021/01/24 10:21:23;;;;;;;51.63;21.05;;;;;;;;;;5073207;28;20512;-66
2021/01/24 10:23:49;;;;;;;55.20;21.13;;;;;;;;;;5071841;28;20035;-66
2021/01/24 10:26:14;;;;;;;44.47;18.05;;;;;;;;;;5076752;28;20039;-66
2021/01/24 10:28:39;;;;;;;50.22;20.95;;;;;;;;;;5075328;28;20020;-65
2021/01/24 10:31:05;;;;;;;42.45;18.52;;;;;;;;;;5081086;28;20064;-66
2021/01/24 10:33:30;;;;;;;41.58;17.58;;;;;;;;;;5083065;28;20100;-65
2021/01/24 10:35:55;;;;;;;36.80;16.42;;;;;;;;;;5080230;28;20430;-66
2021/01/24 10:38:21;;;;;;;46.35;17.00;;;;;;;;;;5074757;28;20020;-65
2021/01/24 10:40:47;;;;;;;31.38;18.65;;;;;;;;;;5075677;28;20032;-66
2021/01/24 10:43:12;;;;;;;42.55;16.63;;;;;;;;;;5074243;28;20437;-65
2021/01/24 10:45:38;;;;;;;49.58;21.80;;;;;;;;;;5072415;28;20019;-66
2021/01/24 10:48:04;;;;;;;40.60;13.63;;;;;;;;;;5067912;28;20024;-65
2021/01/24 10:50:29;;;;;;;31.20;13.63;;;;;;;;;;5068704;28;20483;-67
2021/01/24 10:52:54;;;;;;;44.63;21.27;;;;;;;;;;5065858;28;20167;-65
2021/01/24 10:55:20;;;;;;;41.60;15.07;;;;;;;;;;5068980;28;20460;-67
2021/01/24 10:57:45;;;;;;;44.92;21.30;;;;;;;;;;5082127;28;20016;-65
2021/01/24 11:00:10;;;;;;;39.42;16.83;;;;;;;;;;5068936;28;20012;-66
2021/01/24 11:02:36;;;;;;;33.95;14.82;;;;;;;;;;5068741;28;20032;-65
2021/01/24 11:05:01;;;;;;;41.38;16.52;;;;;;;;;;5071733;28;20096;-66
2021/01/24 11:07:27;;;;;;;35.42;16.63;;;;;;;;;;5067265;28;20016;-66
2021/01/24 11:09:52;;;;;;;43.63;21.35;;;;;;;;;;5064743;28;20654;-66
2021/01/24 11:12:18;;;;;;;44.05;17.90;;;;;;;;;;5067736;28;20017;-66
2021/01/24 11:14:43;;;;;;;42.42;17.92;;;;;;;;;;5071472;28;20028;-66
2021/01/24 11:17:08;;;;;;;34.33;16.35;;;;;;;;;;5071374;28;20131;-66
2021/01/24 11:19:34;;;;;;;44.00;18.60;;;;;;;;;;5072913;28;20852;-66
2021/01/24 11:21:59;;;;;;;37.17;15.85;;;;;;;;;;5071834;28;20040;-66
2021/01/24 11:24:24;;;;;;;43.70;20.38;;;;;;;;;;5073237;28;21723;-66
2021/01/24 11:26:51;;;;;;;50.95;19.40;;;;;;;;;;5069054;28;20021;-66
2021/01/24 11:29:16;;;;;;;40.63;18.02;;;;;;;;;;5067387;28;20017;-66
2021/01/24 11:31:41;;;;;;;41.90;22.38;;;;;;;;;;5064249;28;20026;-66
2021/01/24 11:34:06;;;;;;;41.17;23.33;;;;;;;;;;5068774;28;20027;-66
2021/01/24 11:36:32;;;;;;;40.47;19.58;;;;;;;;;;5072722;28;20040;-66
2021/01/24 11:38:57;;;;;;;40.33;20.70;;;;;;;;;;5070850;28;20032;-66
2021/01/24 11:41:22;;;;;;;36.83;18.05;;;;;;;;;;5075734;28;21926;-66
2021/01/24 11:43:47;;;;;;;41.10;20.40;;;;;;;;;;5078443;28;20045;-66
2021/01/24 11:46:12;;;;;;;43.08;19.15;;;;;;;;;;5075488;28;20111;-66
2021/01/24 11:48:38;;;;;;;43.22;18.25;;;;;;;;;;5056761;28;20060;-66
2021/01/24 11:51:03;;;;;;;49.33;21.35;;;;;;;;;;5071194;28;20032;-66
2021/01/24 11:53:28;;;;;;;45.78;20.90;;;;;;;;;;5077925;28;20032;-66
2021/01/24 11:55:53;;;;;;;43.70;22.83;;;;;;;;;;5071133;28;20028;-66
2021/01/24 11:58:19;;;;;;;43.75;23.25;;;;;;;;;;5070537;28;20273;-65
2021/01/24 12:00:44;;;;;;;52.42;20.73;;;;;;;;;;5069901;28;20119;-65
2021/01/24 12:03:10;;;;;;;47.38;21.75;;;;;;;;;;5071273;28;20028;-66
2021/01/24 12:05:35;;;;;;;44.60;22.53;;;;;;;;;;5070269;28;20554;-66
2021/01/24 12:08:00;;;;;;;45.78;18.83;;;;;;;;;;5071183;28;20299;-66
2021/01/24 12:10:25;;;;;;;47.50;21.95;;;;;;;;;;5070944;28;20424;-65
2021/01/24 12:12:50;;;;;;;39.45;21.58;;;;;;;;;;5071585;28;20112;-67
2021/01/24 12:15:15;;;;;;;34.10;18.77;;;;;;;;;;5087354;28;20023;-66
2021/01/24 12:17:41;;;;;;;44.90;20.25;;;;;;;;;;5073190;28;20534;-66
2021/01/24 12:20:06;;;;;;;43.78;18.35;;;;;;;;;;5072499;28;20020;-65
2021/01/24 12:22:31;;;;;;;41.10;20.63;;;;;;;;;;5055973;28;20032;-65
2021/01/24 12:24:56;;;;;;;44.25;20.55;;;;;;;;;;5076766;28;20025;-66
2021/01/24 12:27:22;;;;;;;35.42;17.33;;;;;;;;;;5073052;28;20020;-65
2021/01/24 12:29:47;;;;;;;30.73;14.35;;;;;;;;;;5073785;28;20540;-66
2021/01/24 12:32:12;;;;;;;34.03;15.95;;;;;;;;;;5072891;28;20032;-65
2021/01/24 12:34:37;;;;;;;35.20;19.73;;;;;;;;;;5072512;28;20376;-67
2021/01/24 12:37:02;;;;;;;53.23;18.10;;;;;;;;;;5074225;28;20040;-66
2021/01/24 12:39:27;;;;;;;38.63;17.13;;;;;;;;;;5072762;28;20735;-66
2021/01/24 12:41:53;;;;;;;54.78;20.38;;;;;;;;;;5075654;28;20059;-65
2021/01/24 12:44:18;;;;;;;39.63;15.45;;;;;;;;;;5071638;28;20024;-67
2021/01/24 12:46:43;;;;;;;37.75;17.42;;;;;;;;;;5075972;28;20039;-67
2021/01/24 12:49:09;;;;;;;38.47;14.85;;;;;;;;;;5074217;28;20020;-66
2021/01/24 12:51:34;;;;;;;47.85;17.63;;;;;;;;;;5078123;28;20167;-66
2021/01/24 12:53:59;;;;;;;40.35;16.08;;;;;;;;;;5069285;28;20501;-65
2021/01/24 12:56:24;;;;;;;32.63;15.77;;;;;;;;;;5072233;28;20425;-66
2021/01/24 12:58:49;;;;;;;34.80;15.68;;;;;;;;;;5071192;28;20109;-65
2021/01/24 13:01:15;;;;;;;41.35;16.95;;;;;;;;;;5071710;28;20118;-67
2021/01/24 13:03:40;;;;;;;43.42;16.02;;;;;;;;;;5070477;28;20016;-67
2021/01/24 13:06:05;;;;;;;33.57;14.40;;;;;;;;;;5069891;28;20025;-69
2021/01/24 13:08:31;;;;;;;36.97;16.27;;;;;;;;;;5069341;28;20286;-66
2021/01/24 13:10:56;;;;;;;31.55;14.70;;;;;;;;;;5069851;28;20036;-65
2021/01/24 13:13:22;;;;;;;38.33;15.48;;;;;;;;;;5070832;28;20021;-67
2021/01/24 13:15:47;;;;;;;30.13;14.25;;;;;;;;;;5070498;28;20036;-69
2021/01/24 13:18:12;;;;;;;31.58;15.32;;;;;;;;;;5068433;28;20499;-71
2021/01/24 13:20:37;;;;;;;35.30;14.63;;;;;;;;;;5070857;28;20465;-66
2021/01/24 13:23:03;;;;;;;38.22;17.33;;;;;;;;;;5070357;28;20025;-67
2021/01/24 13:25:28;;;;;;;40.22;17.88;;;;;;;;;;5071109;28;20020;-67
2021/01/24 13:27:53;;;;;;;50.70;17.77;;;;;;;;;;5068477;28;20017;-66
2021/01/24 13:30:18;;;;;;;50.60;19.73;;;;;;;;;;5070473;28;20023;-67
2021/01/24 13:32:43;;;;;;;37.35;20.25;;;;;;;;;;5184930;22;20463;-70
2021/01/24 13:35:09;;;;;;;38.80;16.45;;;;;;;;;;5083217;28;20405;-69
2021/01/24 13:37:34;;;;;;;39.33;15.48;;;;;;;;;;5082295;28;22003;-69
2021/01/24 13:39:59;;;;;;;31.77;13.82;;;;;;;;;;5084402;28;20023;-69
2021/01/24 13:42:24;;;;;;;38.90;15.23;;;;;;;;;;5088474;28;20571;-70
2021/01/24 13:44:50;;;;;;;36.90;14.63;;;;;;;;;;5073199;28;20446;-70
2021/01/24 13:47:15;;;;;;;36.92;14.25;;;;;;;;;;5090255;28;20020;-70
2021/01/24 13:49:41;;;;;;;36.45;14.75;;;;;;;;;;5091486;28;20543;-69
2021/01/24 13:52:06;;;;;;;30.75;12.65;;;;;;;;;;5090687;28;20475;-70
2021/01/24 13:54:31;;;;;;;32.53;13.30;;;;;;;;;;5088740;28;20472;-69
2021/01/24 13:56:57;;;;;;;52.33;15.70;;;;;;;;;;5090348;28;20266;-69
2021/01/24 13:59:26;;;;;;;37.08;14.07;;;;;;;;;;5084779;28;20031;-69
2021/01/24 14:01:52;;;;;;;31.65;12.95;;;;;;;;;;5083810;28;20085;-69
2021/01/24 14:04:17;;;;;;;33.92;12.95;;;;;;;;;;5086028;28;20012;-69
2021/01/24 14:06:42;;;;;;;30.77;16.27;;;;;;;;;;5092160;28;20032;-69
2021/01/24 14:09:07;;;;;;;38.70;13.70;;;;;;;;;;5091471;28;20038;-69
2021/01/24 14:11:32;;;;;;;30.30;13.05;;;;;;;;;;5091295;28;20022;-69
2021/01/24 14:13:57;;;;;;;26.63;11.97;;;;;;;;;;5091514;28;20027;-69
2021/01/24 14:16:22;;;;;;;28.83;12.57;;;;;;;;;;5091117;28;20345;-69
2021/01/24 14:18:49;;;;;;;29.90;12.77;;;;;;;;;;5090276;28;20339;-69